createdAt,value
2017-11-23T00:00:10.176Z,5.3
2017-11-23T00:05:07.980Z,5.2
2017-11-23T00:15:23.355Z,5.2
2017-11-23T00:20:18.513Z,5.2
2017-11-23T00:25:10.241Z,5.2
2017-11-23T00:30:31.118Z,5.2
2017-11-23T00:35:10.167Z,5.1
2017-11-23T00:45:04.988Z,5.1
2017-11-23T00:50:08.005Z,5.1
2017-11-23T00:55:08.359Z,5
2017-11-23T01:00:10.466Z,5
2017-11-23T01:05:31.040Z,5.1
2017-11-23T01:10:05.830Z,5
2017-11-23T01:15:05.620Z,5
2017-11-23T01:20:05.225Z,5
2017-11-23T01:25:18.160Z,5
2017-11-23T01:30:07.565Z,4.9
2017-11-23T01:35:23.081Z,5
2017-11-23T01:40:02.955Z,5
2017-11-23T01:45:12.874Z,4.9
2017-11-23T01:50:03.216Z,4.9
2017-11-23T01:55:07.643Z,4.8
2017-11-23T02:00:03.130Z,4.8
2017-11-23T02:05:04.982Z,4.8
2017-11-23T02:10:05.078Z,4.9
2017-11-23T02:20:07.977Z,4.9
2017-11-23T02:25:05.727Z,5
2017-11-23T02:30:12.835Z,5
2017-11-23T02:35:08.136Z,5
2017-11-23T02:40:18.368Z,5.1
2017-11-23T02:45:15.574Z,5
2017-11-23T02:50:25.214Z,5
2017-11-23T02:55:05.336Z,5
2017-11-23T03:00:02.395Z,5
2017-11-23T03:05:35.541Z,5.1
2017-11-23T03:10:08.015Z,5.2
2017-11-23T03:15:25.306Z,5.1
2017-11-23T03:20:05.674Z,5.1
2017-11-23T03:25:20.222Z,5
2017-11-23T03:30:08.110Z,5
2017-11-23T03:35:13.407Z,5
2017-11-23T03:40:03.353Z,5
2017-11-23T03:45:33.512Z,5
2017-11-23T03:50:02.671Z,5
2017-11-23T03:55:05.564Z,5.1
2017-11-23T04:00:10.234Z,5.1
2017-11-23T04:05:08.038Z,5.1
2017-11-23T04:10:03.080Z,5.2
2017-11-23T04:15:10.522Z,5.2
2017-11-23T04:20:05.027Z,5.2
2017-11-23T04:25:18.109Z,5.3
2017-11-23T04:35:20.482Z,5.4
2017-11-23T04:40:02.902Z,5.4
2017-11-23T04:45:02.690Z,5.5
2017-11-23T04:50:18.468Z,5.6
2017-11-23T04:55:22.960Z,2.3
2017-11-23T05:00:28.565Z,5.6
2017-11-23T05:05:05.208Z,5.6
2017-11-23T05:10:02.818Z,5.6
2017-11-23T05:15:07.612Z,5.6
2017-11-23T05:20:25.978Z,5.5
2017-11-23T05:25:05.081Z,5.5
2017-11-23T05:30:03.146Z,5.5
2017-11-23T05:35:10.125Z,5.4
2017-11-23T05:40:02.643Z,5.4
2017-11-23T05:45:05.007Z,5.5
2017-11-23T05:50:05.613Z,5.5
2017-11-23T05:55:04.997Z,5.6
2017-11-23T06:00:08.213Z,5.6
2017-11-23T06:05:15.148Z,5.6
2017-11-23T06:10:17.858Z,5.6
2017-11-23T06:15:10.082Z,5.5
2017-11-23T06:20:03.068Z,5.6
2017-11-23T06:25:37.906Z,5.6
2017-11-23T06:30:05.657Z,5.6
2017-11-23T06:35:37.896Z,5.7
2017-11-23T06:40:02.620Z,5.7
2017-11-23T06:45:12.591Z,5.8
2017-11-23T06:50:10.588Z,5.8
2017-11-23T06:55:30.231Z,5.9
2017-11-23T07:00:10.585Z,6
2017-11-23T07:05:17.549Z,6.1
2017-11-23T07:10:25.266Z,6.2
2017-11-23T07:20:05.537Z,6.3
2017-11-23T07:25:04.906Z,6.5
2017-11-23T07:30:02.964Z,6.5
2017-11-23T07:35:05.899Z,6.7
2017-11-23T07:40:05.033Z,6.7
2017-11-23T07:45:17.587Z,6.8
2017-11-23T07:50:10.636Z,7
2017-11-23T07:55:07.584Z,6.9
2017-11-23T08:00:08.187Z,7
2017-11-23T08:05:10.196Z,7.1
2017-11-23T08:10:05.307Z,7.2
2017-11-23T08:15:02.732Z,7.2
2017-11-23T08:20:03.313Z,7.3
2017-11-23T08:25:30.710Z,7.4
2017-11-23T08:30:05.083Z,7.5
2017-11-23T08:40:03.068Z,7.5
2017-11-23T08:45:02.983Z,7.7
2017-11-23T08:50:02.664Z,7.7
2017-11-23T08:55:03.120Z,7.7
2017-11-23T09:00:05.386Z,8
2017-11-23T09:05:02.369Z,7.9
2017-11-23T09:10:02.560Z,8.1
2017-11-23T09:15:07.606Z,8.2
2017-11-23T09:20:05.738Z,8.3
2017-11-23T09:25:17.934Z,8.3
2017-11-23T09:30:17.610Z,8.3
2017-11-23T09:35:18.169Z,8.4
2017-11-23T09:40:05.727Z,8.4
2017-11-23T09:45:03.188Z,8.4
2017-11-23T09:50:10.497Z,8.5
2017-11-23T09:55:02.461Z,8.5
2017-11-23T10:00:05.844Z,8.6
2017-11-23T10:05:15.435Z,8.8
2017-11-23T10:10:03.032Z,8.8
2017-11-23T10:15:15.693Z,9.2
2017-11-23T10:20:17.997Z,9.4
2017-11-23T10:25:02.395Z,9.4
2017-11-23T10:30:08.163Z,9.7
2017-11-23T10:35:15.444Z,9.8
2017-11-23T10:40:08.199Z,9.9
2017-11-23T10:45:13.252Z,10
2017-11-23T10:50:18.059Z,10
2017-11-23T10:55:02.537Z,10
2017-11-23T11:00:05.806Z,10.2
2017-11-23T11:05:20.707Z,10.2
2017-11-23T11:10:03.328Z,10.2
2017-11-23T11:15:07.504Z,10.3
2017-11-23T11:20:05.799Z,10.4
2017-11-23T11:25:02.918Z,10.3
2017-11-23T11:30:02.776Z,10.4
2017-11-23T11:35:10.042Z,10.6
2017-11-23T11:40:10.424Z,10.7
2017-11-23T11:45:30.783Z,10.7
2017-11-23T11:50:25.677Z,10.8
2017-11-23T11:55:10.132Z,10.9
2017-11-23T12:00:02.480Z,10.9
2017-11-23T12:05:23.287Z,11
2017-11-23T12:10:12.564Z,11
2017-11-23T12:15:07.667Z,11.1
2017-11-23T12:20:07.556Z,11.1
2017-11-23T12:25:08.306Z,11.2
2017-11-23T12:30:05.697Z,11.2
2017-11-23T12:35:10.513Z,11.3
2017-11-23T12:40:12.539Z,11.3
2017-11-23T12:45:05.109Z,11.4
2017-11-23T12:50:07.602Z,11.4
2017-11-23T13:00:05.745Z,11.5
2017-11-23T13:05:23.192Z,11.5
2017-11-23T13:10:08.806Z,11.5
2017-11-23T13:15:10.282Z,11.5
2017-11-23T13:20:17.672Z,11.5
2017-11-23T13:25:03.285Z,11.5
2017-11-23T13:30:10.783Z,11.6
2017-11-23T13:35:20.676Z,11.6
2017-11-23T13:40:07.475Z,11.6
2017-11-23T13:45:15.330Z,11.6
2017-11-23T13:50:20.280Z,11.6
2017-11-23T13:55:04.887Z,11.7
2017-11-23T14:00:03.208Z,11.7
2017-11-23T14:05:02.995Z,11.7
2017-11-23T14:10:07.521Z,12.1
2017-11-23T14:15:25.500Z,12.3
2017-11-23T14:20:02.637Z,12.3
2017-11-23T14:25:04.940Z,12.6
2017-11-23T14:30:05.838Z,12.6
2017-11-23T14:35:03.126Z,12.6
2017-11-23T14:40:07.629Z,12.5
2017-11-23T14:45:18.037Z,12.4
2017-11-23T14:50:07.815Z,12.3
2017-11-23T14:55:10.078Z,12.3
2017-11-23T15:00:07.541Z,12.2
2017-11-23T15:05:03.181Z,12.2
2017-11-23T15:15:05.340Z,12
2017-11-23T15:20:07.821Z,12
2017-11-23T15:25:10.081Z,12
2017-11-23T15:30:02.426Z,12
2017-11-23T15:35:05.696Z,11.9
2017-11-23T15:40:02.552Z,11.9
2017-11-23T15:45:02.822Z,12
2017-11-23T15:50:07.755Z,12
2017-11-23T15:55:04.995Z,12
2017-11-23T16:00:25.112Z,12
2017-11-23T16:05:03.124Z,12
2017-11-23T16:10:05.098Z,12.1
2017-11-23T16:15:10.369Z,12
2017-11-23T16:20:05.185Z,12.1
2017-11-23T16:25:17.627Z,12.1
2017-11-23T16:30:18.467Z,12.1
2017-11-23T16:35:03.030Z,12.1
2017-11-23T16:40:04.990Z,12
2017-11-23T16:45:07.733Z,12
2017-11-23T16:50:02.593Z,12
2017-11-23T16:55:03.311Z,11.9
2017-11-23T17:05:28.281Z,11.7
2017-11-23T17:10:08.399Z,11.8
2017-11-23T17:15:22.847Z,11.9
2017-11-23T17:20:05.061Z,11.9
2017-11-23T17:25:33.621Z,12.1
2017-11-23T17:30:03.141Z,12.1
2017-11-23T17:35:07.946Z,12.1
2017-11-23T17:40:05.851Z,12.1
2017-11-23T17:45:27.826Z,12.1
2017-11-23T17:50:03.413Z,12.1
2017-11-23T18:00:28.317Z,12.1
2017-11-23T18:05:05.242Z,12.1
2017-11-23T18:10:05.709Z,12.2
2017-11-23T18:15:12.493Z,12.2
2017-11-23T18:20:08.350Z,12.3
2017-11-23T18:25:10.659Z,12.2
2017-11-23T18:30:05.497Z,12
2017-11-23T18:35:20.431Z,11.9
2017-11-23T18:40:05.653Z,11.9
2017-11-23T18:45:02.339Z,11.9
2017-11-23T18:50:20.943Z,11.8
2017-11-23T18:55:05.539Z,11.7
2017-11-23T19:00:02.893Z,11.7
2017-11-23T19:05:07.725Z,11.6
2017-11-23T19:15:05.835Z,11.6
2017-11-23T19:20:03.086Z,11.6
2017-11-23T19:25:23.168Z,11.5
2017-11-23T19:30:07.772Z,11.5
2017-11-23T19:40:02.858Z,11.6
2017-11-23T19:45:03.015Z,11.5
2017-11-23T19:50:02.892Z,11.6
2017-11-23T19:55:02.695Z,11.6
2017-11-23T20:00:10.080Z,11.7
2017-11-23T20:05:18.439Z,11.8
2017-11-23T20:10:05.204Z,11.8
2017-11-23T20:15:33.213Z,11.8
2017-11-23T20:20:02.686Z,11.8
2017-11-23T20:25:20.254Z,11.9
2017-11-23T20:30:04.885Z,11.9
2017-11-23T20:35:10.759Z,12
2017-11-23T20:40:12.724Z,12.1
2017-11-23T20:45:02.824Z,12.1
2017-11-23T20:50:07.797Z,12.2
2017-11-23T20:55:02.560Z,12.1
2017-11-23T21:00:15.050Z,12.2
2017-11-23T21:05:03.169Z,12.2
2017-11-23T21:10:02.616Z,12.2
2017-11-23T21:15:05.391Z,12.2
2017-11-23T21:20:02.694Z,12.2
2017-11-23T21:25:20.215Z,12.2
2017-11-23T21:30:10.013Z,12.2
2017-11-23T21:35:05.668Z,12.3
2017-11-23T21:40:10.171Z,12.3
2017-11-23T21:45:20.573Z,12.3
2017-11-23T21:50:10.348Z,12.3
2017-11-23T22:00:07.447Z,12.2
2017-11-23T22:05:10.779Z,12.1
2017-11-23T22:10:05.073Z,12
2017-11-23T22:15:02.843Z,12
2017-11-23T22:20:20.337Z,12.1
2017-11-23T22:25:07.510Z,12.1
2017-11-23T22:30:07.407Z,12.2
2017-11-23T22:35:08.207Z,12.2
2017-11-23T22:40:07.555Z,12.2
2017-11-23T22:45:17.904Z,12.2
2017-11-23T22:50:07.663Z,12.2
2017-11-23T22:55:10.005Z,12.2
2017-11-23T23:00:05.791Z,12.2
2017-11-23T23:05:05.599Z,12.2
2017-11-23T23:10:07.427Z,12.2
2017-11-23T23:15:02.668Z,12.2
2017-11-23T23:20:02.578Z,12.2
2017-11-23T23:25:17.557Z,12.2
2017-11-23T23:30:10.929Z,12.2
2017-11-23T23:35:10.646Z,12.1
2017-11-23T23:45:17.958Z,12.1
2017-11-23T23:50:02.624Z,12.1
2017-11-23T23:55:20.198Z,11.8
